Terminal Aerodrome Forecast
Issued by NWS Des Moines, IA

Home | Current Version | Previous Version | Text Only | Print | Product List | Glossary On
Versions: 1 2 3 4 5 6 7 8 9 10 11 12 13 14 15 16 17 18 19 20 21 22 23 24 25 26
000
FTUS43 KDMX 240303 AAA
TAFDSM
TAF AMD
KDSM 240303Z 2403/2424 36006KT P6SM OVC010
     FM240600 02005KT P6SM SCT012
     FM240900 05007KT P6SM BKN028
     FM241300 09007KT P6SM -FZRASN BKN017
     FM241700 10008KT 4SM -RA OVC007=

USA.gov is the U.S. government's official web portal to all federal, state and local government web resources and services.